Briscoe, Texas
Current Conditions -  °F | °C
As of 7:35 PM on Saturday 25 Oct 2014 (Local Time) from KHHF Reporting Station
Clear Clear  
Wind Chill: 76°   Ceiling: Unl
Heat Index: 78°   Visibility: 10mi
Dew Point: 51°   Wind: 9mph
Humidity: 41%   Direction: 170°S
Pressure: 30.01"   Gusts: NA
Location:  35.58°N, 100.29°W
Report Text: KHHF 260035Z AUTO 17008KT 10SM CLR 25/11 A3001 RMK AO2 T02460105
Loading
Personal Weather Stations






























Interactive Weather Map
Tropical Storm Tracking
New forecast layout! Learn more

10-Day Weather Forecast

Advertisements
Track Severe Weather on mobile